createdAt,value
2022-07-26T00:01:19.582Z,24.40
2022-07-26T00:03:50.545Z,24.30
2022-07-26T00:06:19.415Z,24.30
2022-07-26T00:08:48.383Z,24.30
2022-07-26T00:11:16.792Z,24.30
2022-07-26T00:13:45.182Z,24.20
2022-07-26T00:16:13.526Z,24.20
2022-07-26T00:18:41.731Z,24.00
2022-07-26T00:21:11.799Z,24.00
2022-07-26T00:23:40.172Z,24.00
2022-07-26T00:26:08.518Z,23.90
2022-07-26T00:28:36.797Z,23.90
2022-07-26T00:31:05.172Z,23.80
2022-07-26T00:33:33.528Z,23.70
2022-07-26T00:36:02.047Z,23.70
2022-07-26T00:38:31.680Z,23.60
2022-07-26T00:40:59.969Z,23.50
2022-07-26T00:43:28.242Z,23.40
2022-07-26T00:45:56.480Z,23.30
2022-07-26T00:48:24.683Z,23.30
2022-07-26T00:50:54.724Z,23.20
2022-07-26T00:53:23.818Z,23.20
2022-07-26T00:55:54.363Z,23.20
2022-07-26T00:58:22.550Z,23.20
2022-07-26T01:00:50.776Z,23.20
2022-07-26T01:03:18.947Z,23.20
2022-07-26T01:05:48.335Z,23.20
2022-07-26T01:08:16.700Z,23.20
2022-07-26T01:10:44.957Z,23.20
2022-07-26T01:13:16.220Z,23.20
2022-07-26T01:15:44.431Z,23.20
2022-07-26T01:18:12.563Z,23.20
2022-07-26T01:20:40.926Z,23.20
2022-07-26T01:23:10.630Z,23.20
2022-07-26T01:25:43.137Z,23.20
2022-07-26T01:28:11.884Z,23.20
2022-07-26T01:30:49.239Z,23.20
2022-07-26T01:33:18.017Z,23.20
2022-07-26T01:35:46.304Z,23.30
2022-07-26T01:38:15.967Z,23.30
2022-07-26T01:40:44.092Z,23.30
2022-07-26T01:43:12.341Z,23.40
2022-07-26T01:45:40.567Z,23.40
2022-07-26T01:48:09.547Z,23.40
2022-07-26T01:50:38.279Z,23.40
2022-07-26T01:53:06.612Z,23.40
2022-07-26T01:55:36.522Z,23.40
2022-07-26T01:58:05.459Z,23.40
2022-07-26T02:00:34.403Z,23.40
2022-07-26T02:03:02.839Z,23.40
2022-07-26T02:05:31.076Z,23.40
2022-07-26T02:07:59.356Z,23.40
2022-07-26T02:10:49.648Z,23.40
2022-07-26T02:13:19.685Z,23.40
2022-07-26T02:15:47.894Z,23.40
2022-07-26T02:18:16.167Z,23.40
2022-07-26T02:20:44.386Z,23.30
2022-07-26T02:23:12.792Z,23.30
2022-07-26T02:25:41.090Z,23.30
2022-07-26T02:28:09.310Z,23.30
2022-07-26T02:30:39.454Z,23.20
2022-07-26T02:33:07.792Z,23.20
2022-07-26T02:35:35.950Z,23.20
2022-07-26T02:38:04.764Z,23.10
2022-07-26T02:40:33.256Z,23.20
2022-07-26T02:43:01.580Z,23.10
2022-07-26T02:45:29.856Z,23.10
2022-07-26T02:47:59.665Z,23.10
2022-07-26T02:50:29.281Z,23.10
2022-07-26T02:52:57.781Z,23.10
2022-07-26T02:55:27.516Z,23.10
2022-07-26T02:57:55.917Z,23.00
2022-07-26T03:00:26.686Z,23.00
2022-07-26T03:02:55.034Z,23.00
2022-07-26T03:05:24.799Z,23.00
2022-07-26T03:07:52.989Z,22.90
2022-07-26T03:10:21.137Z,22.90
2022-07-26T03:12:49.450Z,22.90
2022-07-26T03:15:17.586Z,22.80
2022-07-26T03:17:45.807Z,22.80
2022-07-26T03:20:14.793Z,22.80
2022-07-26T03:22:44.468Z,22.70
2022-07-26T03:25:12.771Z,22.70
2022-07-26T03:27:41.024Z,22.60
2022-07-26T03:30:10.335Z,22.60
2022-07-26T03:32:38.845Z,22.50
2022-07-26T03:35:08.005Z,22.50
2022-07-26T03:37:46.245Z,22.40
2022-07-26T03:40:16.903Z,22.30
2022-07-26T03:42:45.541Z,22.30
2022-07-26T03:45:14.673Z,22.20
2022-07-26T03:47:43.247Z,22.20
2022-07-26T03:50:13.633Z,22.20
2022-07-26T03:52:42.094Z,22.10
2022-07-26T03:55:28.995Z,22.10
2022-07-26T03:57:59.039Z,22.10
2022-07-26T04:00:27.656Z,22.00
2022-07-26T04:02:55.821Z,22.00
2022-07-26T04:05:26.152Z,21.90
2022-07-26T04:07:54.547Z,21.90
2022-07-26T04:10:24.782Z,21.90
2022-07-26T04:12:53.136Z,21.80
2022-07-26T04:15:23.118Z,21.80
2022-07-26T04:17:51.323Z,21.80
2022-07-26T04:20:19.668Z,21.80
2022-07-26T04:22:47.978Z,21.80
2022-07-26T04:25:16.329Z,21.70
2022-07-26T04:27:44.467Z,21.70
2022-07-26T04:30:15.487Z,21.70
2022-07-26T04:32:46.510Z,21.70
2022-07-26T04:35:15.594Z,21.80
2022-07-26T04:37:44.507Z,21.70
2022-07-26T04:40:17.400Z,21.80
2022-07-26T04:42:49.979Z,21.80
2022-07-26T04:45:18.244Z,21.80
2022-07-26T04:47:50.748Z,21.80
2022-07-26T04:50:19.736Z,21.80
2022-07-26T04:52:48.361Z,21.80
2022-07-26T04:55:17.188Z,21.80
2022-07-26T04:57:47.451Z,21.80
2022-07-26T05:00:23.046Z,21.80
2022-07-26T05:02:55.070Z,21.90
2022-07-26T05:05:24.227Z,21.90
2022-07-26T05:07:53.840Z,21.90
2022-07-26T05:10:23.621Z,21.90
2022-07-26T05:12:51.753Z,21.90
2022-07-26T05:15:19.966Z,21.90
2022-07-26T05:17:48.475Z,21.90
2022-07-26T05:20:18.382Z,21.90
2022-07-26T05:22:47.127Z,22.00
2022-07-26T05:25:15.255Z,22.00
2022-07-26T05:27:43.496Z,22.00
2022-07-26T05:30:12.338Z,22.00
2022-07-26T05:32:40.747Z,22.10
2022-07-26T05:35:09.695Z,22.10
2022-07-26T05:37:39.585Z,22.10
2022-07-26T05:40:08.770Z,22.10
2022-07-26T05:42:37.151Z,22.10
2022-07-26T05:45:06.385Z,22.20
2022-07-26T05:47:34.624Z,22.10
2022-07-26T05:50:02.876Z,22.20
2022-07-26T05:52:30.983Z,22.20
2022-07-26T05:55:00.605Z,22.20
2022-07-26T05:57:28.857Z,22.20
2022-07-26T05:59:56.972Z,22.30
2022-07-26T06:02:25.258Z,22.30
2022-07-26T06:04:53.498Z,22.40
2022-07-26T06:07:21.786Z,22.40
2022-07-26T06:09:49.940Z,22.40
2022-07-26T06:12:19.524Z,22.50
2022-07-26T06:14:47.734Z,22.50
2022-07-26T06:17:16.167Z,22.50
2022-07-26T06:19:47.735Z,22.50
2022-07-26T06:22:16.307Z,22.60
2022-07-26T06:24:44.454Z,22.70
2022-07-26T06:27:12.548Z,22.70
2022-07-26T06:29:42.051Z,22.80
2022-07-26T06:32:10.337Z,22.90
2022-07-26T06:34:38.481Z,23.00
2022-07-26T06:37:06.716Z,23.00
2022-07-26T06:39:34.867Z,23.10
2022-07-26T06:42:03.083Z,23.10
2022-07-26T06:44:31.212Z,23.20
2022-07-26T06:47:00.726Z,23.20
2022-07-26T06:49:29.056Z,23.30
2022-07-26T06:51:58.208Z,23.30
2022-07-26T06:54:26.352Z,23.40
2022-07-26T06:56:54.488Z,23.40
2022-07-26T06:59:22.637Z,23.50
2022-07-26T07:01:51.277Z,23.60
2022-07-26T07:04:25.109Z,23.70
2022-07-26T07:06:53.335Z,23.80
2022-07-26T07:09:24.138Z,24.00
2022-07-26T07:11:57.353Z,24.10
2022-07-26T07:14:28.895Z,24.20
2022-07-26T07:16:57.169Z,24.20
2022-07-26T07:19:27.324Z,24.30
2022-07-26T07:21:55.460Z,24.30
2022-07-26T07:24:23.820Z,24.30
2022-07-26T07:26:51.941Z,24.40
2022-07-26T07:29:20.317Z,24.40
2022-07-26T07:31:49.895Z,24.50
2022-07-26T07:34:22.627Z,24.60
2022-07-26T07:36:53.966Z,24.70
2022-07-26T07:39:22.600Z,24.80
2022-07-26T07:41:50.796Z,24.90
2022-07-26T07:44:18.977Z,24.90
2022-07-26T07:46:47.213Z,24.90
2022-07-26T07:49:15.863Z,25.00
2022-07-26T07:51:44.255Z,25.10
2022-07-26T07:54:16.012Z,25.20
2022-07-26T07:56:44.402Z,25.30
2022-07-26T07:59:13.068Z,25.40
2022-07-26T08:01:41.400Z,25.50
2022-07-26T08:04:09.712Z,25.50
2022-07-26T08:06:37.973Z,25.60
2022-07-26T08:09:09.379Z,25.60
2022-07-26T08:11:43.089Z,25.70
2022-07-26T08:14:11.233Z,25.90
2022-07-26T08:16:41.477Z,26.00
2022-07-26T08:19:10.130Z,26.10
2022-07-26T08:21:39.097Z,26.30
2022-07-26T08:24:08.863Z,26.40
2022-07-26T08:26:37.070Z,26.50
2022-07-26T08:29:07.000Z,26.60
2022-07-26T08:31:35.289Z,26.70
2022-07-26T08:34:03.601Z,26.70
2022-07-26T08:36:32.886Z,26.70
2022-07-26T08:39:01.544Z,26.80
2022-07-26T08:41:30.108Z,26.80
2022-07-26T08:44:08.285Z,26.90
2022-07-26T08:46:38.412Z,27.00
2022-07-26T08:49:08.616Z,27.20
2022-07-26T08:51:40.708Z,27.40
2022-07-26T08:54:08.995Z,27.50
2022-07-26T08:56:41.794Z,27.70
2022-07-26T08:59:20.603Z,27.90
2022-07-26T09:01:54.784Z,28.10
2022-07-26T09:04:31.707Z,28.30
2022-07-26T09:07:04.524Z,28.40
2022-07-26T09:09:33.787Z,28.50
2022-07-26T09:12:15.676Z,28.50
2022-07-26T09:14:47.467Z,28.50
2022-07-26T09:17:17.232Z,28.40
2022-07-26T09:19:45.693Z,28.30
2022-07-26T09:22:16.443Z,28.20
2022-07-26T09:24:46.047Z,28.20
2022-07-26T09:27:16.258Z,28.10
2022-07-26T09:29:47.896Z,28.10
2022-07-26T09:32:18.436Z,28.10
2022-07-26T09:34:53.020Z,28.10
2022-07-26T09:37:34.939Z,28.20
2022-07-26T09:40:06.031Z,28.20
2022-07-26T09:42:34.298Z,28.30
2022-07-26T09:45:04.610Z,28.40
2022-07-26T09:47:39.254Z,28.40
2022-07-26T09:50:12.580Z,28.30
2022-07-26T09:52:40.812Z,28.20
2022-07-26T09:55:10.286Z,28.20
2022-07-26T09:57:38.510Z,28.20
2022-07-26T10:00:09.515Z,28.30
2022-07-26T10:02:37.717Z,28.50
2022-07-26T10:05:09.951Z,28.70
2022-07-26T10:07:38.876Z,28.90
2022-07-26T10:10:11.416Z,29.20
2022-07-26T10:12:39.919Z,29.40
2022-07-26T10:15:47.522Z,29.60
2022-07-26T10:18:44.800Z,29.70
2022-07-26T10:21:25.148Z,29.80
2022-07-26T10:23:56.824Z,29.70
2022-07-26T10:26:40.679Z,29.50
2022-07-26T10:29:22.434Z,29.40
2022-07-26T10:32:17.521Z,29.20
2022-07-26T10:34:46.384Z,28.90
2022-07-26T10:37:27.656Z,28.80
2022-07-26T10:40:19.923Z,28.60
2022-07-26T10:42:48.238Z,28.40
2022-07-26T10:45:24.123Z,28.30
2022-07-26T10:48:16.396Z,28.20
2022-07-26T10:50:46.575Z,28.00
2022-07-26T10:53:20.161Z,27.90
2022-07-26T10:55:50.215Z,27.90
2022-07-26T10:58:18.705Z,27.80
2022-07-26T11:00:58.690Z,27.80
2022-07-26T11:03:38.970Z,27.80
2022-07-26T11:06:14.955Z,27.90
2022-07-26T11:08:47.933Z,28.00
2022-07-26T11:11:29.014Z,28.20
2022-07-26T11:14:07.228Z,28.40
2022-07-26T11:16:39.488Z,28.50
2022-07-26T11:19:16.656Z,28.70
2022-07-26T11:21:46.439Z,28.80
2022-07-26T11:24:15.239Z,29.00
2022-07-26T11:26:44.454Z,29.10
2022-07-26T11:29:14.266Z,29.20
2022-07-26T11:31:51.405Z,29.30
2022-07-26T11:34:33.910Z,29.30
2022-07-26T11:37:03.658Z,29.40
2022-07-26T11:39:35.629Z,29.50
2022-07-26T11:42:05.572Z,29.60
2022-07-26T11:44:34.291Z,29.80
2022-07-26T11:47:12.162Z,29.90
2022-07-26T11:49:51.873Z,30.00
2022-07-26T11:52:32.135Z,30.20
2022-07-26T11:55:00.869Z,30.30
2022-07-26T11:57:30.944Z,30.40
2022-07-26T12:00:01.042Z,30.40
2022-07-26T12:02:31.252Z,30.50
2022-07-26T12:05:18.308Z,30.50
2022-07-26T12:07:58.827Z,30.60
2022-07-26T12:10:27.431Z,30.70
2022-07-26T12:13:09.990Z,31.00
2022-07-26T12:15:48.999Z,31.20
2022-07-26T12:18:25.578Z,31.40
2022-07-26T12:21:06.254Z,31.50
2022-07-26T12:23:49.713Z,31.50
2022-07-26T12:26:26.111Z,31.50
2022-07-26T12:28:54.840Z,31.40
2022-07-26T12:31:27.884Z,31.40
2022-07-26T12:33:56.453Z,31.40
2022-07-26T12:36:29.466Z,31.40
2022-07-26T12:38:59.484Z,31.30
2022-07-26T12:41:38.251Z,31.30
2022-07-26T12:44:07.218Z,31.20
2022-07-26T12:46:36.332Z,31.20
2022-07-26T12:49:06.102Z,31.10
2022-07-26T12:51:36.359Z,31.00
2022-07-26T12:54:06.383Z,30.90
2022-07-26T12:56:34.997Z,30.70
2022-07-26T12:59:03.257Z,30.60
2022-07-26T13:01:32.795Z,30.40
2022-07-26T13:04:01.320Z,30.30
2022-07-26T13:06:29.631Z,30.10
2022-07-26T13:08:59.164Z,30.00
2022-07-26T13:11:27.496Z,29.80
2022-07-26T13:13:56.399Z,29.70
2022-07-26T13:16:24.662Z,29.60
2022-07-26T13:18:52.876Z,29.70
2022-07-26T13:21:21.071Z,29.70
2022-07-26T13:23:49.240Z,29.80
2022-07-26T13:26:18.705Z,29.90
2022-07-26T13:28:49.565Z,30.00
2022-07-26T13:31:18.639Z,30.20
2022-07-26T13:33:47.173Z,30.30
2022-07-26T13:36:15.280Z,30.50
2022-07-26T13:38:43.439Z,30.70
2022-07-26T13:41:11.572Z,31.00
2022-07-26T13:43:41.162Z,31.20
2022-07-26T13:46:09.430Z,31.40
2022-07-26T13:48:39.486Z,31.70
2022-07-26T13:51:16.272Z,31.90
2022-07-26T13:53:52.121Z,32.00
2022-07-26T13:56:23.562Z,32.10
2022-07-26T13:58:53.147Z,32.20
2022-07-26T14:01:21.386Z,32.30
2022-07-26T14:04:11.477Z,32.40
2022-07-26T14:06:40.790Z,32.50
2022-07-26T14:09:13.361Z,32.60
2022-07-26T14:11:41.987Z,32.70
2022-07-26T14:14:12.536Z,32.70
2022-07-26T14:16:41.324Z,32.70
2022-07-26T14:19:10.030Z,32.60
2022-07-26T14:21:48.957Z,32.60
2022-07-26T14:24:27.656Z,32.50
2022-07-26T14:26:59.714Z,32.40
2022-07-26T14:29:30.003Z,32.40
2022-07-26T14:31:58.353Z,32.20
2022-07-26T14:34:26.622Z,32.10
2022-07-26T14:36:54.784Z,32.00
2022-07-26T14:39:22.935Z,31.90
2022-07-26T14:41:51.131Z,31.90
2022-07-26T14:44:19.403Z,31.80
2022-07-26T14:46:49.096Z,31.60
2022-07-26T14:49:17.337Z,31.60
2022-07-26T14:51:45.589Z,31.50
2022-07-26T14:54:17.295Z,31.50
2022-07-26T14:56:45.655Z,31.40
2022-07-26T14:59:13.884Z,31.50
2022-07-26T15:01:42.502Z,31.40
2022-07-26T15:04:12.652Z,31.40
2022-07-26T15:06:41.014Z,31.50
2022-07-26T15:09:09.147Z,31.50
2022-07-26T15:11:37.383Z,31.50
2022-07-26T15:14:06.534Z,31.50
2022-07-26T15:16:34.775Z,31.50
2022-07-26T15:19:03.008Z,31.50
2022-07-26T15:21:32.474Z,31.40
2022-07-26T15:24:00.678Z,31.30
2022-07-26T15:26:28.809Z,31.20
2022-07-26T15:28:56.967Z,31.20
2022-07-26T15:31:37.434Z,31.10
2022-07-26T15:34:08.942Z,31.20
2022-07-26T15:36:39.852Z,31.30
2022-07-26T15:39:16.969Z,31.30
2022-07-26T15:41:46.234Z,31.30
2022-07-26T15:44:14.629Z,31.40
2022-07-26T15:47:10.732Z,31.50
2022-07-26T15:49:45.850Z,31.50
2022-07-26T15:52:30.803Z,31.50
2022-07-26T15:54:59.246Z,31.60
2022-07-26T15:57:27.384Z,31.60
2022-07-26T15:59:55.514Z,31.60
2022-07-26T16:02:30.293Z,31.60
2022-07-26T16:05:13.602Z,31.60
2022-07-26T16:07:50.754Z,31.60
2022-07-26T16:10:19.010Z,31.60
2022-07-26T16:12:47.215Z,31.50
2022-07-26T16:15:15.490Z,31.40
2022-07-26T16:17:43.865Z,31.40
2022-07-26T16:20:12.300Z,31.30
2022-07-26T16:22:41.895Z,31.20
2022-07-26T16:25:13.747Z,31.10
2022-07-26T16:27:43.112Z,31.00
2022-07-26T16:30:13.097Z,30.90
2022-07-26T16:32:41.641Z,30.80
2022-07-26T16:35:10.722Z,30.70
2022-07-26T16:37:39.055Z,30.70
2022-07-26T16:40:16.375Z,30.60
2022-07-26T16:42:44.526Z,30.50
2022-07-26T16:45:13.153Z,30.40
2022-07-26T16:47:41.266Z,30.30
2022-07-26T16:50:10.100Z,30.20
2022-07-26T16:52:38.279Z,30.10
2022-07-26T16:55:10.741Z,30.00
2022-07-26T16:57:40.616Z,29.90
2022-07-26T17:00:11.474Z,29.80
2022-07-26T17:02:40.235Z,29.80
2022-07-26T17:05:09.876Z,29.70
2022-07-26T17:07:38.343Z,29.70
2022-07-26T17:10:08.376Z,29.70
2022-07-26T17:12:37.345Z,29.70
2022-07-26T17:15:09.773Z,29.70
2022-07-26T17:17:37.991Z,29.70
2022-07-26T17:20:07.291Z,29.70
2022-07-26T17:22:35.599Z,29.70
2022-07-26T17:25:03.953Z,29.60
2022-07-26T17:27:32.150Z,29.60
2022-07-26T17:30:06.063Z,29.50
2022-07-26T17:32:38.010Z,29.50
2022-07-26T17:35:07.279Z,29.40
2022-07-26T17:37:36.107Z,29.20
2022-07-26T17:40:08.120Z,29.10
2022-07-26T17:42:36.522Z,29.10
2022-07-26T17:45:05.489Z,29.00
2022-07-26T17:47:35.233Z,29.00
2022-07-26T17:50:35.539Z,28.90
2022-07-26T17:52:55.095Z,28.90
2022-07-26T17:55:23.547Z,28.80
2022-07-26T17:57:52.557Z,28.80
2022-07-26T18:00:22.691Z,28.80
2022-07-26T18:02:52.213Z,28.70
2022-07-26T18:05:20.684Z,28.70
2022-07-26T18:07:48.919Z,28.70
2022-07-26T18:10:17.103Z,28.60
2022-07-26T18:12:45.371Z,28.60
2022-07-26T18:15:13.906Z,28.50
2022-07-26T18:17:42.040Z,28.40
2022-07-26T18:20:14.607Z,28.30
2022-07-26T18:22:42.744Z,28.20
2022-07-26T18:25:14.455Z,28.10
2022-07-26T18:27:42.546Z,28.10
2022-07-26T18:30:12.218Z,28.00
2022-07-26T18:32:40.611Z,28.00
2022-07-26T18:35:09.257Z,28.00
2022-07-26T18:37:38.812Z,27.90
2022-07-26T18:40:08.776Z,27.90
2022-07-26T18:42:37.902Z,27.80
2022-07-26T18:45:07.208Z,27.80
2022-07-26T18:47:35.336Z,27.70
2022-07-26T18:50:03.692Z,27.60
2022-07-26T18:52:32.879Z,27.50
2022-07-26T18:55:06.862Z,27.30
2022-07-26T18:57:35.381Z,27.20
2022-07-26T19:00:03.683Z,27.10
2022-07-26T19:02:31.814Z,26.90
2022-07-26T19:04:59.913Z,26.80
2022-07-26T19:07:28.134Z,26.70
2022-07-26T19:09:58.535Z,26.60
2022-07-26T19:12:28.550Z,26.50
2022-07-26T19:14:56.848Z,26.40
2022-07-26T19:17:24.965Z,26.30
2022-07-26T19:19:53.169Z,26.20
2022-07-26T19:22:22.991Z,26.10
2022-07-26T19:24:51.796Z,26.00
2022-07-26T19:27:20.269Z,26.00
2022-07-26T19:29:49.840Z,25.90
2022-07-26T19:32:18.160Z,25.90
2022-07-26T19:34:46.297Z,25.90
2022-07-26T19:37:19.788Z,25.80
2022-07-26T19:39:48.544Z,25.80
2022-07-26T19:42:16.752Z,25.80
2022-07-26T19:44:45.705Z,25.70
2022-07-26T19:47:15.480Z,25.70
2022-07-26T19:49:43.727Z,25.60
2022-07-26T19:52:12.236Z,25.60
2022-07-26T19:54:40.645Z,25.50
2022-07-26T19:57:09.009Z,25.50
2022-07-26T19:59:38.266Z,25.40
2022-07-26T20:02:08.823Z,25.40
2022-07-26T20:04:40.799Z,25.40
2022-07-26T20:07:12.915Z,25.30
2022-07-26T20:09:41.046Z,25.30
2022-07-26T20:12:09.262Z,25.20
2022-07-26T20:14:37.404Z,25.20
2022-07-26T20:17:11.897Z,25.20
2022-07-26T20:19:42.733Z,25.20
2022-07-26T20:22:10.964Z,25.10
2022-07-26T20:24:39.306Z,25.10
2022-07-26T20:27:07.958Z,25.10
2022-07-26T20:29:36.593Z,25.10
2022-07-26T20:32:05.098Z,25.00
2022-07-26T20:34:36.465Z,25.00
2022-07-26T20:37:05.972Z,25.00
2022-07-26T20:39:34.768Z,24.90
2022-07-26T20:42:03.429Z,24.90
2022-07-26T20:44:33.013Z,25.00
2022-07-26T20:47:02.983Z,25.00
2022-07-26T20:49:31.278Z,25.00
2022-07-26T20:51:59.676Z,25.00
2022-07-26T20:54:29.138Z,24.90
2022-07-26T20:56:57.397Z,25.00
2022-07-26T20:59:36.193Z,24.90
2022-07-26T21:02:04.577Z,24.90
2022-07-26T21:04:33.318Z,24.80
2022-07-26T21:07:01.454Z,24.80
2022-07-26T21:09:30.998Z,24.80
2022-07-26T21:11:59.280Z,24.80
2022-07-26T21:14:27.468Z,24.70
2022-07-26T21:16:55.653Z,24.70
2022-07-26T21:19:24.131Z,24.60
2022-07-26T21:21:53.708Z,24.50
2022-07-26T21:24:22.430Z,24.40
2022-07-26T21:26:51.984Z,24.30
2022-07-26T21:29:20.329Z,24.10
2022-07-26T21:31:48.823Z,24.00
2022-07-26T21:34:17.050Z,23.80
2022-07-26T21:36:45.228Z,23.70
2022-07-26T21:39:14.308Z,23.50
2022-07-26T21:41:42.669Z,23.40
2022-07-26T21:44:12.457Z,23.30
2022-07-26T21:46:40.645Z,23.20
2022-07-26T21:49:09.285Z,23.10
2022-07-26T21:51:37.756Z,23.00
2022-07-26T21:54:06.012Z,22.90
2022-07-26T21:56:34.283Z,22.80
2022-07-26T21:59:02.411Z,22.80
2022-07-26T22:01:32.000Z,22.70
2022-07-26T22:04:00.499Z,22.60
2022-07-26T22:06:28.771Z,22.60
2022-07-26T22:08:56.877Z,22.60
2022-07-26T22:11:25.305Z,22.60
2022-07-26T22:13:53.716Z,22.60
2022-07-26T22:16:22.327Z,22.60
2022-07-26T22:18:51.914Z,22.50
2022-07-26T22:21:20.064Z,22.50
2022-07-26T22:23:48.199Z,22.50
2022-07-26T22:26:16.670Z,22.40
2022-07-26T22:28:44.926Z,22.40
2022-07-26T22:31:13.307Z,22.30
2022-07-26T22:33:41.437Z,22.30
2022-07-26T22:36:11.618Z,22.20
2022-07-26T22:38:39.826Z,22.20
2022-07-26T22:41:08.064Z,22.10
2022-07-26T22:43:36.153Z,22.10
2022-07-26T22:46:04.557Z,22.00
2022-07-26T22:48:37.026Z,22.00
2022-07-26T22:51:06.484Z,22.00
2022-07-26T22:53:36.009Z,22.00
2022-07-26T22:56:04.130Z,22.00
2022-07-26T22:58:32.301Z,22.00
2022-07-26T23:01:00.648Z,22.00
2022-07-26T23:03:28.876Z,21.90
2022-07-26T23:05:58.445Z,21.90
2022-07-26T23:08:46.334Z,21.80
2022-07-26T23:11:16.571Z,21.80
2022-07-26T23:13:44.718Z,21.80
2022-07-26T23:16:12.897Z,21.70
2022-07-26T23:18:41.188Z,21.70
2022-07-26T23:21:09.320Z,21.80
2022-07-26T23:23:37.533Z,21.80
2022-07-26T23:26:05.730Z,21.80
2022-07-26T23:28:38.250Z,21.80
2022-07-26T23:31:09.341Z,21.70
2022-07-26T23:33:53.044Z,21.70
2022-07-26T23:36:24.037Z,21.70
2022-07-26T23:38:52.342Z,21.70
2022-07-26T23:41:20.545Z,21.70
2022-07-26T23:43:50.210Z,21.70
2022-07-26T23:46:18.446Z,21.70
2022-07-26T23:48:47.038Z,21.60
2022-07-26T23:51:15.288Z,21.60
2022-07-26T23:53:43.736Z,21.60
2022-07-26T23:56:11.918Z,21.60
2022-07-26T23:58:40.255Z,21.60
